Time;durP1;ratioP1;P1;durP2;ratioP2;P2;SDS_P1;SDS_P2;PMS_P1;PMS_P2;Temp;Humidity;BMP_temperature;BMP_pressure;BME280_temperature;BME280_humidity;BME280_pressure;Samples;Min_cycle;Max_cycle;Signal;HPM_P1;HPM_P2
2023/05/16 00:01:34;;;;;;;;;;;;;;;27.02;42.42;93863.50;4916208;29;7028;-64
2023/05/16 00:04:02;;;;;;;;;;;;;;;27.01;42.92;93864.78;4961724;28;7292;-64
2023/05/16 00:06:29;;;;;;;;;;;;;;;27.00;42.63;93868.06;4967835;28;9016;-64
2023/05/16 00:08:55;;;;;;;;;;;;;;;27.00;42.41;93868.81;4955223;28;8762;-64
2023/05/16 00:11:30;;;;;;;;;;;;;;;27.00;42.49;93863.28;4961427;28;8790;-64
2023/05/16 00:14:25;;;;;;;;;;;;;;;27.00;42.80;93871.56;5027469;28;7059;-64
2023/05/16 00:17:19;;;;;;;;;;;;;;;27.00;42.52;93857.03;4985006;28;9789;-64
2023/05/16 00:19:57;;;;;;;;;;;;;;;27.00;42.80;93859.78;5009893;28;7479;-64
2023/05/16 00:22:35;;;;;;;;;;;;;;;26.97;42.62;93860.88;4990754;28;7016;-64
2023/05/16 00:25:03;;;;;;;;;;;;;;;26.95;42.70;93855.84;4990201;28;9140;-64
2023/05/16 00:27:29;;;;;;;;;;;;;;;26.99;42.95;93858.31;5007846;28;7439;-64
2023/05/16 00:29:55;;;;;;;;;;;;;;;26.99;42.37;93850.75;4994779;28;7031;-64
2023/05/16 00:32:21;;;;;;;;;;;;;;;26.95;42.56;93846.84;5009732;28;7871;-64
2023/05/16 00:34:47;;;;;;;;;;;;;;;26.97;42.54;93847.78;5009945;28;9132;-64
2023/05/16 00:37:23;;;;;;;;;;;;;;;26.95;42.43;93850.34;4993737;28;7340;-64
2023/05/16 00:40:06;;;;;;;;;;;;;;;26.97;42.70;93847.78;5014016;28;7160;-65
2023/05/16 00:42:42;;;;;;;;;;;;;;;26.96;42.60;93840.78;5013997;28;7140;-64
2023/05/16 00:45:39;;;;;;;;;;;;;;;26.96;42.44;93840.78;5008983;28;8936;-64
2023/05/16 00:48:09;;;;;;;;;;;;;;;26.94;42.70;93837.81;4920905;29;7305;-64
2023/05/16 00:50:48;;;;;;;;;;;;;;;26.94;42.60;93829.53;4961714;28;9005;-64
2023/05/16 00:53:15;;;;;;;;;;;;;;;26.95;42.68;93833.06;4944250;28;9144;-64
2023/05/16 00:55:51;;;;;;;;;;;;;;;26.94;43.02;93829.53;4956769;28;9407;-64
2023/05/16 00:58:32;;;;;;;;;;;;;;;26.94;42.61;93826.03;4958742;28;9457;-64
2023/05/16 01:01:18;;;;;;;;;;;;;;;26.93;42.24;93825.28;4952118;28;7138;-64
2023/05/16 01:03:55;;;;;;;;;;;;;;;26.93;42.58;93828.06;4974195;28;7286;-64
2023/05/16 01:06:58;;;;;;;;;;;;;;;26.93;42.59;93830.81;4961400;28;9017;-64
2023/05/16 01:09:41;;;;;;;;;;;;;;;26.94;42.66;93821.28;4950272;28;9122;-64
2023/05/16 01:16:29;;;;;;;;;;;;;;;26.92;42.41;93823.81;4946984;28;7050;-65
2023/05/16 01:19:34;;;;;;;;;;;;;;;26.92;42.60;93823.06;4924612;29;9025;-64
2023/05/16 01:22:28;;;;;;;;;;;;;;;26.92;43.19;93829.34;4938576;28;7037;-64
2023/05/16 01:24:57;;;;;;;;;;;;;;;26.92;42.16;93821.06;4983156;28;8742;-64
2023/05/16 01:27:26;;;;;;;;;;;;;;;26.87;42.80;93816.38;5010138;28;7006;-64
2023/05/16 01:29:56;;;;;;;;;;;;;;;26.86;42.48;93815.66;5000611;28;7026;-64
2023/05/16 01:32:46;;;;;;;;;;;;;;;26.83;42.71;93821.50;4987702;28;7254;-64
2023/05/16 01:35:26;;;;;;;;;;;;;;;26.79;43.42;93816.31;4994257;28;7268;-64
2023/05/16 01:38:11;;;;;;;;;;;;;;;26.77;42.79;93823.63;4987658;28;7140;-65
2023/05/16 01:41:03;;;;;;;;;;;;;;;26.76;43.12;93816.63;4999198;28;7302;-64
2023/05/16 01:43:45;;;;;;;;;;;;;;;26.76;43.08;93824.88;4982035;28;9037;-65
2023/05/16 01:46:24;;;;;;;;;;;;;;;26.76;42.29;93816.63;4986997;28;7371;-65
2023/05/16 01:49:04;;;;;;;;;;;;;;;26.76;42.65;93822.13;5005083;28;7057;-65
2023/05/16 01:51:33;;;;;;;;;;;;;;;26.75;42.71;93817.91;5020490;28;7081;-64
2023/05/16 01:54:09;;;;;;;;;;;;;;;26.74;43.03;93814.41;5028436;28;7005;-65
2023/05/16 01:56:54;;;;;;;;;;;;;;;26.74;42.90;93813.66;5047829;28;7214;-64
2023/05/16 01:59:23;;;;;;;;;;;;;;;26.74;42.96;93813.66;5034629;28;7267;-64
2023/05/16 02:01:55;;;;;;;;;;;;;;;26.70;43.13;93819.47;5041609;28;7770;-65
2023/05/16 02:04:23;;;;;;;;;;;;;;;26.72;42.55;93816.16;5034238;28;9018;-65
2023/05/16 02:06:52;;;;;;;;;;;;;;;26.73;42.41;93812.19;5044778;28;7080;-64
2023/05/16 02:09:54;;;;;;;;;;;;;;;26.73;42.84;93817.69;5038363;28;7116;-64
2023/05/16 02:12:22;;;;;;;;;;;;;;;26.71;42.80;93812.66;5053301;28;9104;-65
2023/05/16 02:15:22;;;;;;;;;;;;;;;26.72;42.82;93807.88;5038174;28;7227;-64
2023/05/16 02:17:57;;;;;;;;;;;;;;;26.71;43.32;93818.19;5020203;28;7273;-65
2023/05/16 02:20:43;;;;;;;;;;;;;;;26.69;42.96;93817.22;5053509;28;8936;-64
2023/05/16 02:23:14;;;;;;;;;;;;;;;26.72;43.04;93821.69;5032801;28;9483;-64
2023/05/16 02:25:40;;;;;;;;;;;;;;;26.70;43.13;93818.72;5025999;28;7205;-64
2023/05/16 02:28:08;;;;;;;;;;;;;;;26.69;43.18;93819.97;5036182;28;7139;-64
2023/05/16 02:30:36;;;;;;;;;;;;;;;26.67;42.49;93809.50;5045809;28;7503;-64
2023/05/16 02:33:06;;;;;;;;;;;;;;;26.72;42.78;93821.69;5018903;28;9083;-65
2023/05/16 02:35:40;;;;;;;;;;;;;;;26.70;43.06;93808.44;5032279;28;9156;-64
2023/05/16 02:38:19;;;;;;;;;;;;;;;26.68;42.65;93801.97;5025568;28;8760;-65
2023/05/16 02:40:51;;;;;;;;;;;;;;;26.67;43.20;93803.97;5019316;28;9031;-64
2023/05/16 02:43:27;;;;;;;;;;;;;;;26.67;42.71;93808.75;5049581;28;8726;-64
2023/05/16 02:45:53;;;;;;;;;;;;;;;26.71;43.07;93801.63;5040056;28;8847;-64
2023/05/16 02:48:30;;;;;;;;;;;;;;;26.67;42.78;93806.72;5021746;28;7096;-64
2023/05/16 02:50:58;;;;;;;;;;;;;;;26.65;42.87;93803.75;5022788;28;7280;-64
2023/05/16 02:53:27;;;;;;;;;;;;;;;26.65;42.91;93801.00;5033342;28;7039;-65
2023/05/16 02:56:09;;;;;;;;;;;;;;;26.64;43.09;93799.50;5019430;28;7039;-64
2023/05/16 02:58:37;;;;;;;;;;;;;;;26.62;42.97;93799.28;5040073;28;9691;-64
2023/05/16 03:01:03;;;;;;;;;;;;;;;26.65;43.09;93794.72;5049541;28;9568;-65
2023/05/16 03:03:32;;;;;;;;;;;;;;;26.67;42.92;93790.19;5051084;28;7046;-64
2023/05/16 03:06:12;;;;;;;;;;;;;;;26.68;43.09;93794.44;5053209;28;7044;-64
2023/05/16 03:09:12;;;;;;;;;;;;;;;26.67;42.53;93794.94;5025750;28;9055;-64
2023/05/16 03:11:55;;;;;;;;;;;;;;;26.65;42.86;93784.44;5009030;28;9186;-65
2023/05/16 03:14:31;;;;;;;;;;;;;;;26.65;43.16;93789.22;4990798;28;7100;-64
2023/05/16 03:17:16;;;;;;;;;;;;;;;26.64;42.93;93791.22;4983749;28;7346;-64
2023/05/16 03:20:03;;;;;;;;;;;;;;;26.65;42.72;93798.25;4993227;28;8712;-65
2023/05/16 03:22:51;;;;;;;;;;;;;;;26.66;42.83;93796.22;4992053;28;7280;-64
2023/05/16 03:25:27;;;;;;;;;;;;;;;26.64;43.29;93788.47;4990606;28;7241;-64
2023/05/16 03:27:54;;;;;;;;;;;;;;;26.62;42.83;93785.50;5008232;28;7077;-64
2023/05/16 03:30:33;;;;;;;;;;;;;;;26.62;42.85;93790.31;5010460;28;7283;-64
2023/05/16 03:33:37;;;;;;;;;;;;;;;26.62;42.97;93784.78;5005532;28;9361;-64
2023/05/16 03:36:06;;;;;;;;;;;;;;;26.61;42.79;93784.03;5005362;28;8737;-64
2023/05/16 03:38:53;;;;;;;;;;;;;;;26.59;42.96;93778.31;4993890;28;9571;-64
2023/05/16 03:41:37;;;;;;;;;;;;;;;26.62;43.11;93784.78;4993766;28;9004;-64
2023/05/16 03:44:04;;;;;;;;;;;;;;;26.61;42.75;93777.78;5011650;28;8643;-64
2023/05/16 03:46:50;;;;;;;;;;;;;;;26.62;43.07;93779.25;5014156;28;9072;-64
2023/05/16 03:50:03;;;;;;;;;;;;;;;26.60;42.92;93773.53;5034785;28;9010;-64
2023/05/16 03:52:29;;;;;;;;;;;;;;;26.61;42.87;93773.00;4951513;28;7000;-64
2023/05/16 03:55:24;;;;;;;;;;;;;;;26.57;42.99;93778.09;4959496;28;8228;-64
2023/05/16 03:57:52;;;;;;;;;;;;;;;26.58;42.77;93773.31;4954516;28;9493;-65
2023/05/16 04:00:42;;;;;;;;;;;;;;;26.59;42.61;93778.31;4959700;28;8696;-64
2023/05/16 04:03:37;;;;;;;;;;;;;;;26.59;42.55;93781.06;4960735;28;8766;-64
2023/05/16 04:06:20;;;;;;;;;;;;;;;26.59;42.50;93786.59;4965990;28;7957;-64
2023/05/16 04:09:08;;;;;;;;;;;;;;;26.59;42.88;93783.06;4936685;28;7434;-64
2023/05/16 04:11:57;;;;;;;;;;;;;;;26.60;42.85;93781.81;4962546;28;6984;-65
2023/05/16 04:14:34;;;;;;;;;;;;;;;26.59;43.16;93786.59;4959504;28;8725;-64
2023/05/16 04:17:01;;;;;;;;;;;;;;;26.59;42.93;93791.34;4963581;28;7059;-64
2023/05/16 04:19:36;;;;;;;;;;;;;;;26.56;42.48;93781.38;4951133;28;7028;-64
2023/05/16 04:25:37;;;;;;;;;;;;;;;26.55;43.16;93788.94;4970984;28;9530;-64
2023/05/16 04:28:03;;;;;;;;;;;;;;;26.56;43.24;93786.88;4959061;28;7266;-64
2023/05/16 04:30:47;;;;;;;;;;;;;;;26.55;43.24;93794.44;5048435;28;7642;-65
2023/05/16 04:33:19;;;;;;;;;;;;;;;26.54;42.88;93792.94;5051027;28;9046;-64
2023/05/16 04:36:23;;;;;;;;;;;;;;;26.49;43.45;93791.03;5035214;28;9450;-64
2023/05/16 04:38:57;;;;;;;;;;;;;;;26.46;42.95;93788.59;4963944;28;8463;-64
2023/05/16 04:42:08;;;;;;;;;;;;;;;26.47;42.81;93792.84;4957137;28;9329;-64
2023/05/16 04:44:36;;;;;;;;;;;;;;;26.48;42.94;93797.09;4926847;29;7161;-64
2023/05/16 04:47:33;;;;;;;;;;;;;;;26.49;43.05;93799.31;4933471;29;9021;-64
2023/05/16 04:50:01;;;;;;;;;;;;;;;26.51;42.88;93796.75;4927806;29;9107;-63
2023/05/16 04:52:37;;;;;;;;;;;;;;;26.52;43.11;93798.25;4931885;29;9124;-64
2023/05/16 04:55:15;;;;;;;;;;;;;;;26.51;42.84;93801.53;4931977;28;7300;-64
2023/05/16 04:58:00;;;;;;;;;;;;;;;26.47;42.81;93798.38;4910604;29;9069;-64
2023/05/16 05:00:44;;;;;;;;;;;;;;;26.47;42.97;93792.84;4924947;29;7059;-64
2023/05/16 05:03:24;;;;;;;;;;;;;;;26.48;42.84;93791.56;4916256;29;9117;-64
2023/05/16 05:05:59;;;;;;;;;;;;;;;26.46;42.90;93791.34;4914195;29;7263;-64
2023/05/16 05:08:38;;;;;;;;;;;;;;;26.50;43.28;93794.53;4912435;29;8293;-64
2023/05/16 05:11:42;;;;;;;;;;;;;;;26.48;43.24;93797.84;4928035;29;7235;-64
2023/05/16 05:14:17;;;;;;;;;;;;;;;26.47;43.33;93792.84;4960010;28;8232;-64
2023/05/16 05:21:12;;;;;;;;;;;;;;;26.42;43.49;93796.44;4940444;28;7220;-64
2023/05/16 05:24:16;;;;;;;;;;;;;;;26.38;43.94;93802.25;4966607;28;7219;-64
2023/05/16 05:27:02;;;;;;;;;;;;;;;26.35;43.46;93810.88;4939986;28;7068;-64
2023/05/16 05:29:29;;;;;;;;;;;;;;;26.35;44.02;93800.59;4958920;28;7273;-64
2023/05/16 05:32:15;;;;;;;;;;;;;;;26.36;43.81;93807.56;4946632;28;7243;-64
2023/05/16 05:34:41;;;;;;;;;;;;;;;26.38;43.66;93796.75;4931836;28;9049;-64
2023/05/16 05:37:16;;;;;;;;;;;;;;;26.43;43.75;93795.16;4935635;28;7252;-64
2023/05/16 05:40:12;;;;;;;;;;;;;;;26.47;43.13;93796.34;4942484;28;9045;-63
2023/05/16 05:42:53;;;;;;;;;;;;;;;26.51;42.80;93802.28;4933695;28;7025;-63
2023/05/16 05:45:34;;;;;;;;;;;;;;;26.53;43.83;93804.50;4950847;28;9242;-63
2023/05/16 05:48:15;;;;;;;;;;;;;;;26.56;43.10;93793.16;4937198;28;7126;-63
2023/05/16 05:51:13;;;;;;;;;;;;;;;26.62;42.89;93809.59;4933844;28;9069;-63
2023/05/16 05:53:40;;;;;;;;;;;;;;;26.62;43.58;93801.34;4939105;28;8665;-63
2023/05/16 05:56:41;;;;;;;;;;;;;;;26.67;43.24;93803.97;4943020;28;7235;-63
2023/05/16 05:59:20;;;;;;;;;;;;;;;26.71;42.65;93806.41;4976824;28;7371;-63
2023/05/16 06:02:02;;;;;;;;;;;;;;;26.73;43.46;93806.66;4984492;28;7238;-63
2023/05/16 06:04:30;;;;;;;;;;;;;;;26.76;43.02;93800.06;4964171;28;7049;-63
2023/05/16 06:06:56;;;;;;;;;;;;;;;26.77;43.04;93802.28;4984331;28;6862;-63
2023/05/16 06:09:22;;;;;;;;;;;;;;;26.81;42.72;93801.97;4981176;28;9085;-64
2023/05/16 06:11:48;;;;;;;;;;;;;;;26.83;42.69;93810.47;4985255;28;8779;-63
2023/05/16 06:14:16;;;;;;;;;;;;;;;26.84;43.02;93803.66;4982856;28;8646;-63
2023/05/16 06:16:43;;;;;;;;;;;;;;;26.86;42.79;93812.16;4984238;28;7287;-63
2023/05/16 06:19:22;;;;;;;;;;;;;;;26.87;42.66;93816.38;5002509;28;7035;-63
2023/05/16 06:22:17;;;;;;;;;;;;;;;26.89;42.77;93816.59;5048537;28;9089;-63
2023/05/16 06:24:47;;;;;;;;;;;;;;;26.91;42.45;93814.03;5041158;28;9370;-64
2023/05/16 06:27:14;;;;;;;;;;;;;;;26.94;42.42;93815.75;5039307;28;9018;-64
2023/05/16 06:29:40;;;;;;;;;;;;;;;26.98;42.36;93810.66;5038672;28;7332;-64
2023/05/16 06:32:07;;;;;;;;;;;;;;;27.02;42.45;93816.56;5037856;28;7310;-64
2023/05/16 06:34:33;;;;;;;;;;;;;;;27.08;42.18;93822.00;5017908;28;7081;-64
2023/05/16 06:36:59;;;;;;;;;;;;;;;27.12;42.41;93814.13;5024359;28;9542;-64
2023/05/16 06:39:27;;;;;;;;;;;;;;;27.16;42.42;93815.28;5035372;28;7405;-63
2023/05/16 06:41:56;;;;;;;;;;;;;;;27.21;42.19;93817.16;5030089;28;8668;-63
2023/05/16 06:44:41;;;;;;;;;;;;;;;27.24;42.41;93812.59;5030837;28;8164;-63
2023/05/16 06:47:15;;;;;;;;;;;;;;;27.30;42.35;93813.19;5029042;28;7256;-63
2023/05/16 06:49:45;;;;;;;;;;;;;;;27.31;42.38;93804.41;5044465;28;9109;-63
2023/05/16 06:52:28;;;;;;;;;;;;;;;27.36;42.34;93811.84;5040876;28;8059;-64
2023/05/16 06:55:01;;;;;;;;;;;;;;;27.36;42.59;93811.84;5030794;28;7214;-63
2023/05/16 06:57:35;;;;;;;;;;;;;;;27.42;42.17;93811.72;5033848;28;7223;-63
2023/05/16 07:00:33;;;;;;;;;;;;;;;27.45;42.44;93819.66;5041442;28;7264;-63
2023/05/16 07:03:33;;;;;;;;;;;;;;;27.50;42.31;93815.28;4973142;28;9054;-64
2023/05/16 07:06:09;;;;;;;;;;;;;;;27.53;41.83;93819.75;4993389;28;7255;-63
2023/05/16 07:08:35;;;;;;;;;;;;;;;27.54;41.93;93815.69;4988282;28;7171;-63
2023/05/16 07:11:05;;;;;;;;;;;;;;;27.52;42.19;93810.72;4991658;28;7577;-63
2023/05/16 07:13:51;;;;;;;;;;;;;;;27.56;42.35;93822.19;4986325;28;8700;-63
2023/05/16 07:16:36;;;;;;;;;;;;;;;27.58;42.11;93810.56;4970622;28;7350;-63
2023/05/16 07:19:15;;;;;;;;;;;;;;;27.58;42.52;93814.09;4976190;28;7949;-64
2023/05/16 07:22:26;;;;;;;;;;;;;;;27.59;42.35;93823.88;4993699;28;8848;-63
2023/05/16 07:24:56;;;;;;;;;;;;;;;27.62;42.09;93816.53;4986156;28;7055;-63
2023/05/16 07:27:31;;;;;;;;;;;;;;;27.59;42.26;93823.13;4995071;28;7802;-63
2023/05/16 07:30:16;;;;;;;;;;;;;;;27.62;42.10;93822.06;4988697;28;7045;-65
2023/05/16 07:32:43;;;;;;;;;;;;;;;27.61;42.17;93820.56;4976820;28;8698;-63
2023/05/16 07:35:23;;;;;;;;;;;;;;;27.62;42.00;93831.06;4992546;28;9042;-63
2023/05/16 07:37:59;;;;;;;;;;;;;;;27.64;41.59;93822.97;4993567;28;9390;-63
2023/05/16 07:40:28;;;;;;;;;;;;;;;27.63;41.72;93818.75;5027406;28;8261;-63
2023/05/16 07:42:58;;;;;;;;;;;;;;;27.65;42.45;93818.22;5021907;28;8736;-63
2023/05/16 07:45:35;;;;;;;;;;;;;;;27.66;42.10;93824.47;5026398;28;7371;-64
2023/05/16 07:48:21;;;;;;;;;;;;;;;27.63;41.98;93824.28;5024659;28;9205;-63
2023/05/16 07:51:07;;;;;;;;;;;;;;;27.63;42.10;93821.50;5037382;28;8458;-63
2023/05/16 07:53:41;;;;;;;;;;;;;;;27.62;42.64;93828.31;5031047;28;7127;-63
2023/05/16 07:56:54;;;;;;;;;;;;;;;27.61;41.95;93826.84;5039145;28;9373;-64
2023/05/16 07:59:35;;;;;;;;;;;;;;;27.61;42.32;93831.63;4967572;28;7036;-63
2023/05/16 08:02:02;;;;;;;;;;;;;;;27.58;42.28;93827.91;4985293;28;8248;-63
2023/05/16 08:04:39;;;;;;;;;;;;;;;27.57;42.11;93831.97;4988341;28;7308;-63
2023/05/16 08:07:36;;;;;;;;;;;;;;;27.55;41.75;93831.75;4971361;28;8233;-63
2023/05/16 08:10:02;;;;;;;;;;;;;;;27.54;42.00;93841.31;4914005;29;8924;-63
2023/05/16 08:12:37;;;;;;;;;;;;;;;27.53;41.72;93841.84;4914059;29;7070;-63
2023/05/16 08:15:16;;;;;;;;;;;;;;;27.51;41.52;93845.13;4895788;29;9375;-63
2023/05/16 08:17:44;;;;;;;;;;;;;;;27.50;42.19;93845.69;4896725;29;7450;-63
2023/05/16 08:20:21;;;;;;;;;;;;;;;27.50;41.55;93840.16;4915158;29;7265;-63
2023/05/16 08:23:32;;;;;;;;;;;;;;;27.47;41.82;93844.72;4896313;29;9379;-63
2023/05/16 08:26:03;;;;;;;;;;;;;;;27.44;42.08;93837.53;4914189;29;8691;-63
2023/05/16 08:28:29;;;;;;;;;;;;;;;27.44;41.92;93845.81;4914623;29;9805;-63
2023/05/16 08:31:32;;;;;;;;;;;;;;;27.44;42.19;93845.06;4909322;29;8969;-64
2023/05/16 08:34:10;;;;;;;;;;;;;;;27.40;42.11;93839.13;4876058;29;7273;-63
2023/05/16 08:36:56;;;;;;;;;;;;;;;27.39;42.11;93837.63;4888799;29;7233;-63
2023/05/16 08:39:39;;;;;;;;;;;;;;;27.41;42.22;93846.88;4914753;29;7050;-63
2023/05/16 08:42:06;;;;;;;;;;;;;;;27.40;42.22;93839.13;4892289;29;7588;-63
2023/05/16 08:45:17;;;;;;;;;;;;;;;27.39;42.17;93846.69;4895912;29;7284;-63
2023/05/16 08:48:08;;;;;;;;;;;;;;;27.38;42.22;93847.94;4870138;29;9733;-63
2023/05/16 08:50:45;;;;;;;;;;;;;;;27.35;42.08;93840.75;4887515;29;7248;-63
2023/05/16 08:53:30;;;;;;;;;;;;;;;27.36;42.59;93841.50;4879517;29;8797;-64
2023/05/16 08:56:34;;;;;;;;;;;;;;;27.35;42.44;93842.72;4871991;29;7613;-63
2023/05/16 08:59:17;;;;;;;;;;;;;;;27.33;42.11;93842.53;4879348;29;7296;-64
2023/05/16 09:02:28;;;;;;;;;;;;;;;27.34;42.21;93844.75;4891877;29;9176;-64
2023/05/16 09:05:26;;;;;;;;;;;;;;;27.33;42.36;93846.03;4876349;29;7391;-64
2023/05/16 09:08:01;;;;;;;;;;;;;;;27.32;42.34;93838.25;4869178;29;7553;-63
2023/05/16 09:11:15;;;;;;;;;;;;;;;27.32;42.37;93836.25;4897982;29;7090;-63
2023/05/16 09:13:55;;;;;;;;;;;;;;;27.34;42.42;93838.50;4929885;29;7225;-63
2023/05/16 09:17:14;;;;;;;;;;;;;;;27.32;42.31;93843.78;4913266;29;7833;-64
2023/05/16 09:20:08;;;;;;;;;;;;;;;27.31;42.38;93834.78;4923738;29;7296;-63
2023/05/16 09:23:03;;;;;;;;;;;;;;;27.32;42.53;93839.00;4897931;29;7303;-65
2023/05/16 09:25:30;;;;;;;;;;;;;;;27.33;42.39;93829.47;4882781;29;7262;-64
2023/05/16 09:28:10;;;;;;;;;;;;;;;27.31;42.35;93834.03;4898076;29;9403;-63
2023/05/16 09:31:01;;;;;;;;;;;;;;;27.31;42.36;93834.03;4897951;29;7036;-63
2023/05/16 09:33:51;;;;;;;;;;;;;;;27.31;42.66;93834.78;4898139;29;6867;-63
2023/05/16 09:36:31;;;;;;;;;;;;;;;27.31;42.37;93837.53;4898876;29;7024;-63
2023/05/16 09:39:06;;;;;;;;;;;;;;;27.29;42.30;93833.81;4897797;29;8926;-63
2023/05/16 09:42:05;;;;;;;;;;;;;;;27.28;42.48;93837.84;4891444;29;7266;-64
2023/05/16 09:44:56;;;;;;;;;;;;;;;27.27;42.37;93841.91;4948174;28;9052;-64
2023/05/16 09:47:51;;;;;;;;;;;;;;;27.25;42.30;93834.13;4966332;28;7266;-63
2023/05/16 09:51:04;;;;;;;;;;;;;;;27.24;42.52;93827.16;4971438;28;7111;-63
2023/05/16 09:54:21;;;;;;;;;;;;;;;27.24;42.49;93824.38;4969112;28;7046;-63
2023/05/16 09:57:06;;;;;;;;;;;;;;;27.25;42.24;93834.13;4973026;28;7300;-63
2023/05/16 09:59:38;;;;;;;;;;;;;;;27.22;42.07;93828.97;4975214;28;7278;-63
2023/05/16 10:02:31;;;;;;;;;;;;;;;27.24;42.17;93826.41;5000252;28;7118;-63
2023/05/16 10:05:37;;;;;;;;;;;;;;;27.24;42.37;93829.16;4941314;28;9688;-63
2023/05/16 10:08:30;;;;;;;;;;;;;;;27.21;42.25;93836.50;4952566;28;7660;-63
2023/05/16 10:11:20;;;;;;;;;;;;;;;27.20;42.51;93837.78;4973220;28;7269;-63
2023/05/16 10:14:16;;;;;;;;;;;;;;;27.21;42.33;93842.00;4956615;28;7002;-63
2023/05/16 10:16:47;;;;;;;;;;;;;;;27.20;42.71;93843.31;4962077;28;6868;-63
2023/05/16 10:19:37;;;;;;;;;;;;;;;27.21;42.11;93844.78;4955637;28;9200;-63
2023/05/16 10:22:33;;;;;;;;;;;;;;;27.17;42.43;93844.34;4949717;28;9071;-63
2023/05/16 10:25:50;;;;;;;;;;;;;;;27.20;42.43;93848.81;4970441;28;7189;-63
2023/05/16 10:28:28;;;;;;;;;;;;;;;27.19;42.23;93844.56;4940912;28;7390;-63
2023/05/16 10:31:11;;;;;;;;;;;;;;;27.16;42.56;93842.16;4965830;28;7537;-64
2023/05/16 10:33:50;;;;;;;;;;;;;;;27.17;42.38;93840.84;4965389;28;9458;-63
2023/05/16 10:36:51;;;;;;;;;;;;;;;27.17;42.44;93846.38;4953923;28;7997;-63
2023/05/16 10:39:29;;;;;;;;;;;;;;;27.16;42.48;93847.66;4963733;28;9091;-64
2023/05/16 10:41:56;;;;;;;;;;;;;;;27.15;42.46;93832.38;4998552;28;8236;-63
2023/05/16 10:44:33;;;;;;;;;;;;;;;27.13;42.47;93830.16;5048695;28;9013;-63
2023/05/16 10:47:05;;;;;;;;;;;;;;;27.14;42.43;93837.16;5044372;28;7004;-63
2023/05/16 10:49:31;;;;;;;;;;;;;;;27.13;42.95;93832.16;5046800;28;8647;-63
2023/05/16 10:52:05;;;;;;;;;;;;;;;27.12;42.38;93838.97;5027962;28;7363;-63
2023/05/16 10:54:41;;;;;;;;;;;;;;;27.15;42.87;93843.41;5041098;28;9291;-63
2023/05/16 10:57:22;;;;;;;;;;;;;;;27.08;41.94;93838.56;5038376;28;9136;-63
2023/05/16 10:59:51;;;;;;;;;;;;;;;27.11;42.83;93843.75;5025131;28;7037;-63
2023/05/16 11:02:31;;;;;;;;;;;;;;;27.10;42.57;93839.47;5041488;28;7301;-63
2023/05/16 11:05:00;;;;;;;;;;;;;;;27.08;42.50;93842.03;5043411;28;9252;-63
2023/05/16 11:08:03;;;;;;;;;;;;;;;27.09;42.23;93848.31;5035948;28;7320;-63
2023/05/16 11:10:30;;;;;;;;;;;;;;;27.08;41.72;93846.84;5027572;28;7271;-64
2023/05/16 11:13:09;;;;;;;;;;;;;;;27.08;41.72;93852.34;5045331;28;9193;-64
2023/05/16 11:15:35;;;;;;;;;;;;;;;27.08;41.64;93849.59;5039004;28;7061;-63
2023/05/16 11:18:14;;;;;;;;;;;;;;;27.09;42.04;93851.81;5040971;28;9092;-63
2023/05/16 11:20:41;;;;;;;;;;;;;;;27.08;41.83;93844.06;5042419;28;9486;-63
2023/05/16 11:23:20;;;;;;;;;;;;;;;27.07;42.35;93851.59;5047308;28;9330;-64
2023/05/16 11:26:33;;;;;;;;;;;;;;;27.06;42.14;93852.88;5042231;28;9049;-63
2023/05/16 11:29:09;;;;;;;;;;;;;;;27.05;42.35;93862.44;4973287;28;6989;-63
2023/05/16 11:31:54;;;;;;;;;;;;;;;27.05;42.43;93856.94;4952757;28;7294;-63
2023/05/16 11:34:22;;;;;;;;;;;;;;;27.07;42.57;93859.88;4969374;28;7016;-64
2023/05/16 11:37:14;;;;;;;;;;;;;;;27.09;42.59;93865.63;4966961;28;7192;-63
2023/05/16 11:39:50;;;;;;;;;;;;;;;27.10;42.25;93872.59;4952152;28;7072;-63
2023/05/16 11:42:30;;;;;;;;;;;;;;;27.12;42.21;93872.09;4962827;28;9155;-63
2023/05/16 11:45:26;;;;;;;;;;;;;;;27.13;42.29;93871.56;4957628;28;9013;-63
2023/05/16 11:48:00;;;;;;;;;;;;;;;27.13;42.29;93876.31;4966520;28;7423;-64
2023/05/16 11:50:27;;;;;;;;;;;;;;;27.13;42.38;93874.31;4966929;28;9209;-64
2023/05/16 11:52:56;;;;;;;;;;;;;;;27.15;42.46;93876.53;4961730;28;9371;-63
2023/05/16 11:55:25;;;;;;;;;;;;;;;27.12;42.55;93872.81;4966037;28;7289;-63
2023/05/16 11:57:53;;;;;;;;;;;;;;;27.14;42.13;93889.63;4969329;28;9059;-63
2023/05/16 12:00:23;;;;;;;;;;;;;;;27.16;42.25;93883.56;4949237;28;7624;-63
2023/05/16 12:03:04;;;;;;;;;;;;;;;27.14;42.37;93883.34;4963451;28;7004;-64
2023/05/16 12:05:31;;;;;;;;;;;;;;;27.11;42.65;93878.88;4994003;28;9047;-64
2023/05/16 12:07:58;;;;;;;;;;;;;;;27.11;42.18;93876.88;5029758;28;7175;-64
2023/05/16 12:10:24;;;;;;;;;;;;;;;27.11;41.97;93884.41;5025915;28;7401;-64
2023/05/16 12:12:54;;;;;;;;;;;;;;;27.14;42.41;93892.38;5021908;28;7274;-64
2023/05/16 12:15:21;;;;;;;;;;;;;;;27.13;42.06;93890.88;5041376;28;7333;-63
2023/05/16 12:17:52;;;;;;;;;;;;;;;27.13;42.34;93893.63;5028028;28;7723;-64
2023/05/16 12:20:18;;;;;;;;;;;;;;;27.15;42.34;93902.13;5028177;28;8958;-65
2023/05/16 12:22:45;;;;;;;;;;;;;;;27.14;41.74;93895.13;5023190;28;7268;-65
2023/05/16 12:25:34;;;;;;;;;;;;;;;27.14;42.54;93900.66;5042197;28;9109;-64
2023/05/16 12:28:03;;;;;;;;;;;;;;;27.13;42.35;93898.41;5028136;28;7051;-64
2023/05/16 12:30:31;;;;;;;;;;;;;;;27.14;41.93;93900.66;5046705;28;7359;-64
2023/05/16 12:32:58;;;;;;;;;;;;;;;27.12;42.35;93897.66;5033789;28;8208;-63
2023/05/16 12:35:30;;;;;;;;;;;;;;;27.10;42.18;93893.97;5032267;28;7340;-63
2023/05/16 12:38:25;;;;;;;;;;;;;;;27.10;42.41;93897.47;5042764;28;7471;-63
2023/05/16 12:40:57;;;;;;;;;;;;;;;27.11;42.14;93898.94;4963835;28;7107;-64
2023/05/16 12:43:23;;;;;;;;;;;;;;;27.11;42.52;93898.94;4970312;28;6861;-64
2023/05/16 12:45:51;;;;;;;;;;;;;;;27.11;42.69;93895.44;4956391;28;9650;-64
2023/05/16 12:48:17;;;;;;;;;;;;;;;27.12;42.25;93897.66;4957503;28;9155;-64
2023/05/16 12:50:47;;;;;;;;;;;;;;;27.12;42.15;93903.19;4952796;28;8469;-63
2023/05/16 12:53:16;;;;;;;;;;;;;;;27.13;42.21;93895.66;4961647;28;8616;-63
2023/05/16 12:55:43;;;;;;;;;;;;;;;27.14;42.03;93892.38;4966908;28;7838;-64
2023/05/16 12:58:10;;;;;;;;;;;;;;;27.08;42.78;93900.00;4966916;28;8745;-64
2023/05/16 13:00:37;;;;;;;;;;;;;;;27.10;42.35;93905.75;4971201;28;7307;-64
2023/05/16 13:03:06;;;;;;;;;;;;;;;27.09;42.15;93895.22;4952424;28;7361;-64
2023/05/16 13:06:02;;;;;;;;;;;;;;;27.11;42.26;93904.47;4955323;28;9035;-64
2023/05/16 13:08:30;;;;;;;;;;;;;;;27.11;42.36;93910.00;4918316;29;7244;-64
2023/05/16 13:11:28;;;;;;;;;;;;;;;27.11;42.21;93912.75;4933044;28;7241;-64
2023/05/16 13:14:05;;;;;;;;;;;;;;;27.09;42.42;93903.50;4903226;29;9366;-63
2023/05/16 13:16:42;;;;;;;;;;;;;;;27.11;42.40;93896.19;4916547;29;8718;-63
2023/05/16 13:19:08;;;;;;;;;;;;;;;27.12;42.50;93914.22;4934190;29;9138;-63
2023/05/16 13:21:55;;;;;;;;;;;;;;;27.10;42.19;93902.97;4936199;29;7066;-63
2023/05/16 13:24:34;;;;;;;;;;;;;;;27.08;42.10;93913.81;4916198;29;7423;-64
2023/05/16 13:27:17;;;;;;;;;;;;;;;27.10;42.11;93914.03;4930794;29;8843;-63
2023/05/16 13:30:00;;;;;;;;;;;;;;;27.08;42.22;93913.81;4919786;29;8988;-63
2023/05/16 13:33:00;;;;;;;;;;;;;;;27.09;42.23;93920.06;4934673;29;7195;-63
2023/05/16 13:35:29;;;;;;;;;;;;;;;27.07;42.22;93925.38;4919907;29;7054;-63
2023/05/16 13:37:56;;;;;;;;;;;;;;;27.06;42.21;93921.88;4936013;29;9097;-63
2023/05/16 13:40:33;;;;;;;;;;;;;;;27.08;42.47;93930.38;4920453;29;7260;-64
2023/05/16 13:43:02;;;;;;;;;;;;;;;27.08;42.47;93940.69;4932259;29;7207;-64
2023/05/16 13:45:41;;;;;;;;;;;;;;;27.09;42.67;93933.88;4950469;28;7875;-64
2023/05/16 13:48:08;;;;;;;;;;;;;;;27.03;42.42;93939.53;4981737;28;7357;-64
2023/05/16 13:51:01;;;;;;;;;;;;;;;27.05;42.14;93945.25;5011224;28;9113;-64
2023/05/16 13:53:38;;;;;;;;;;;;;;;27.05;42.28;93942.50;4971627;28;9806;-63
2023/05/16 13:56:20;;;;;;;;;;;;;;;27.05;42.37;93944.50;4956024;28;7569;-63
2023/05/16 13:59:14;;;;;;;;;;;;;;;27.03;42.52;93945.03;4956870;28;7047;-64
2023/05/16 14:02:16;;;;;;;;;;;;;;;27.05;42.55;93959.06;4953352;28;9860;-64
2023/05/16 14:04:43;;;;;;;;;;;;;;;27.03;42.80;93950.56;4966615;28;9499;-63
2023/05/16 14:07:21;;;;;;;;;;;;;;;27.02;42.40;93957.34;4943490;28;7446;-64
2023/05/16 14:10:05;;;;;;;;;;;;;;;27.02;42.73;93959.34;4973711;28;9424;-64
2023/05/16 14:13:14;;;;;;;;;;;;;;;27.01;43.20;93950.34;4974127;28;7260;-64
2023/05/16 14:15:56;;;;;;;;;;;;;;;27.02;42.78;93951.06;4978868;28;7355;-63